Time;durP1;ratioP1;P1;durP2;ratioP2;P2;SDS_P1;SDS_P2;PMS_P1;PMS_P2;Temp;Humidity;BMP_temperature;BMP_pressure;BME280_temperature;BME280_humidity;BME280_pressure;Samples;Min_cycle;Max_cycle;Signal;HPM_P1;HPM_P2
2024/02/04 00:04:57;;;;;;;3.83;3.25;;;;;;;;;;6145065;23;19904;-88
2024/02/04 00:25:04;;;;;;;3.42;2.83;;;;;;;;;;6094345;23;20088;31
2024/02/04 00:33:09;;;;;;;4.05;3.30;;;;;;;;;;6102297;23;20022;-96
2024/02/04 00:47:32;;;;;;;4.43;4.00;;;;;;;;;;6134616;23;20051;-96
2024/02/04 00:49:58;;;;;;;5.28;4.32;;;;;;;;;;6148854;23;19990;-89
2024/02/04 00:52:30;;;;;;;5.95;5.35;;;;;;;;;;6135014;23;20022;-95
2024/02/04 01:03:46;;;;;;;5.97;5.38;;;;;;;;;;6114086;23;20086;-95
2024/02/04 01:06:31;;;;;;;6.68;5.50;;;;;;;;;;6094053;23;20025;-96
2024/02/04 01:08:59;;;;;;;7.55;5.43;;;;;;;;;;6094844;23;20001;-96
2024/02/04 01:17:32;;;;;;;6.60;5.57;;;;;;;;;;6033110;23;20017;-96
2024/02/04 01:20:13;;;;;;;7.18;5.40;;;;;;;;;;6010933;23;20012;-94
2024/02/04 01:33:46;;;;;;;6.32;5.30;;;;;;;;;;6096877;23;20026;-88
2024/02/04 01:46:45;;;;;;;7.87;6.60;;;;;;;;;;6149794;23;20029;-90
2024/02/04 01:51:49;;;;;;;7.65;6.90;;;;;;;;;;6142490;23;20022;-90
2024/02/04 02:03:28;;;;;;;7.20;6.45;;;;;;;;;;6144427;23;20120;-95
2024/02/04 02:22:48;;;;;;;9.57;8.60;;;;;;;;;;6124761;23;20026;-96
2024/02/04 02:28:32;;;;;;;9.68;8.77;;;;;;;;;;6142191;23;20025;-96
2024/02/04 02:36:58;;;;;;;10.95;9.82;;;;;;;;;;6134221;23;20026;-93
2024/02/04 02:39:25;;;;;;;11.43;10.30;;;;;;;;;;6099731;23;19986;-89
2024/02/04 02:42:01;;;;;;;9.95;8.90;;;;;;;;;;6121319;23;20001;-89
2024/02/04 02:47:14;;;;;;;11.65;10.45;;;;;;;;;;6142904;23;20338;-88
2024/02/04 02:49:43;;;;;;;10.75;9.23;;;;;;;;;;6114799;23;20013;-89
2024/02/04 02:52:12;;;;;;;10.25;9.25;;;;;;;;;;6113584;23;20045;-91
2024/02/04 02:55:02;;;;;;;10.82;9.80;;;;;;;;;;6112608;23;20054;-96
2024/02/04 02:57:28;;;;;;;11.85;10.73;;;;;;;;;;6117561;23;20061;-89
2024/02/04 03:02:55;;;;;;;12.48;11.38;;;;;;;;;;6137209;23;20042;-89
2024/02/04 03:08:59;;;;;;;13.70;12.40;;;;;;;;;;6139981;23;20012;-92
2024/02/04 03:11:25;;;;;;;11.77;10.75;;;;;;;;;;6098557;23;20082;-93
2024/02/04 03:13:57;;;;;;;12.18;11.13;;;;;;;;;;6110930;23;20013;-94
2024/02/04 03:18:52;;;;;;;12.60;11.50;;;;;;;;;;6142052;23;20017;-93
2024/02/04 03:23:56;;;;;;;12.73;9.35;;;;;;;;;;6202940;23;20077;-96
2024/02/04 03:26:41;;;;;;;11.25;10.15;;;;;;;;;;6148337;23;20045;-96
2024/02/04 03:29:25;;;;;;;11.75;10.75;;;;;;;;;;6148288;23;20001;-88
2024/02/04 03:31:51;;;;;;;13.32;12.23;;;;;;;;;;6143243;23;20088;-90
2024/02/04 03:37:52;;;;;;;;;;;;;;;;;;;;;
2024/02/04 03:40:21;;;;;;;14.77;13.60;;;;;;;;;;6059163;23;20011;-88
2024/02/04 03:43:11;;;;;;;16.23;15.13;;;;;;;;;;6028674;23;20014;-96
2024/02/04 03:48:53;;;;;;;15.10;13.82;;;;;;;;;;6112241;23;20027;-96
2024/02/04 03:51:56;;;;;;;;;;;;;;;;;;;;;
2024/02/04 03:54:54;;;;;;;13.27;12.18;;;;;;;;;;6112208;23;20020;-96
2024/02/04 04:06:46;;;;;;;;;;;;;;;;;;;;;
2024/02/04 04:09:48;;;;;;;10.68;9.88;;;;;;;;;;6128587;23;20006;-89
2024/02/04 04:12:27;;;;;;;11.07;10.27;;;;;;;;;;6064644;23;20191;-90
2024/02/04 04:15:48;;;;;;;10.93;10.13;;;;;;;;;;6117209;23;20013;-96
2024/02/04 04:20:47;;;;;;;10.52;9.75;;;;;;;;;;6137625;23;20025;-95
2024/02/04 04:33:13;;;;;;;;;;;;;;;;;;;;;
2024/02/04 04:35:43;;;;;;;13.48;12.57;;;;;;;;;;5733846;25;20044;-96
2024/02/04 04:38:31;;;;;;;11.65;10.82;;;;;;;;;;6002794;23;20005;-95
2024/02/04 04:41:05;;;;;;;11.13;10.32;;;;;;;;;;6144227;23;20018;-93
2024/02/04 04:49:06;;;;;;;12.05;11.23;;;;;;;;;;6143501;23;20022;-87
2024/02/04 05:05:53;;;;;;;11.80;11.00;;;;;;;;;;6208331;23;20059;-96
2024/02/04 05:08:38;;;;;;;9.80;9.00;;;;;;;;;;6179383;23;20228;-96
2024/02/04 05:11:05;;;;;;;14.05;12.82;;;;;;;;;;6153615;23;20010;-88
2024/02/04 05:13:47;;;;;;;11.77;10.88;;;;;;;;;;6177751;23;20008;-94
2024/02/04 05:19:31;;;;;;;11.30;10.40;;;;;;;;;;6191046;23;20284;-93
2024/02/04 05:28:55;;;;;;;10.55;9.85;;;;;;;;;;6095939;23;20038;-96
2024/02/04 05:31:40;;;;;;;10.02;9.32;;;;;;;;;;6143855;23;20005;-94
2024/02/04 05:34:12;;;;;;;10.60;9.90;;;;;;;;;;6147239;23;20005;-95
2024/02/04 05:36:56;;;;;;;13.05;12.23;;;;;;;;;;6124624;23;20010;-94
2024/02/04 05:39:23;;;;;;;10.18;9.48;;;;;;;;;;6119079;23;20017;-88
2024/02/04 05:41:49;;;;;;;10.55;9.85;;;;;;;;;;6121726;23;20009;-90
2024/02/04 05:52:57;;;;;;;11.80;11.00;;;;;;;;;;6180808;23;20020;-88
2024/02/04 05:55:57;;;;;;;10.43;9.73;;;;;;;;;;6151818;23;20010;-96
2024/02/04 05:58:30;;;;;;;11.05;10.30;;;;;;;;;;6036350;23;20043;-96
2024/02/04 06:01:40;;;;;;;10.90;10.10;;;;;;;;;;6032221;23;20042;-96
2024/02/04 06:04:54;;;;;;;;;;;;;;;;;;;;;
2024/02/04 06:10:34;;;;;;;13.73;12.82;;;;;;;;;;6060462;23;20041;-88
2024/02/04 06:13:54;;;;;;;;;;;;;;;;;;;;;
2024/02/04 06:22:03;;;;;;;11.27;10.48;;;;;;;;;;6089320;23;20001;-95
2024/02/04 06:24:29;;;;;;;10.88;10.05;;;;;;;;;;6063949;23;19999;-89
2024/02/04 06:27:05;;;;;;;9.82;9.13;;;;;;;;;;6060321;23;20022;-91
2024/02/04 06:29:31;;;;;;;12.23;11.32;;;;;;;;;;6052443;23;20029;-89
2024/02/04 06:35:24;;;;;;;10.70;9.93;;;;;;;;;;6106506;23;20029;-96
2024/02/04 06:37:58;;;;;;;10.95;10.15;;;;;;;;;;6112985;23;20006;-93
2024/02/04 06:45:42;;;;;;;10.35;9.63;;;;;;;;;;6123617;23;21191;-88
2024/02/04 06:54:03;;;;;;;;;;;;;;;;;;;;;
2024/02/04 06:56:34;;;;;;;11.75;10.95;;;;;;;;;;6060855;23;20010;-96
2024/02/04 07:04:32;;;;;;;8.20;7.60;;;;;;;;;;6120898;23;20244;-89
2024/02/04 07:15:30;;;;;;;9.25;8.55;;;;;;;;;;6110376;23;20573;31
2024/02/04 07:20:53;;;;;;;7.50;6.90;;;;;;;;;;6094309;23;20061;-87
2024/02/04 07:31:08;;;;;;;8.68;8.13;;;;;;;;;;6142936;23;20049;-88
2024/02/04 07:44:06;;;;;;;8.07;7.47;;;;;;;;;;6103094;23;20052;-88
2024/02/04 07:46:42;;;;;;;9.30;8.60;;;;;;;;;;6117940;23;20024;-89
2024/02/04 07:49:11;;;;;;;11.05;9.98;;;;;;;;;;6077941;23;20027;-90
2024/02/04 07:51:37;;;;;;;8.50;7.90;;;;;;;;;;6084950;23;20022;-88
2024/02/04 07:54:17;;;;;;;8.55;7.95;;;;;;;;;;6085511;23;20014;-87
2024/02/04 07:56:43;;;;;;;7.90;7.30;;;;;;;;;;6085029;23;20061;-90
2024/02/04 07:59:15;;;;;;;8.93;8.32;;;;;;;;;;6091780;23;20033;-90
2024/02/04 08:04:28;;;;;;;7.07;6.57;;;;;;;;;;6109725;23;20038;-90
2024/02/04 08:12:27;;;;;;;9.13;8.43;;;;;;;;;;6166444;23;20037;-88
2024/02/04 08:17:38;;;;;;;8.85;8.25;;;;;;;;;;6132892;23;20447;-95
2024/02/04 08:20:04;;;;;;;9.63;9.02;;;;;;;;;;6114108;23;20002;-93
2024/02/04 08:22:45;;;;;;;9.20;8.60;;;;;;;;;;6141773;23;20065;-96
2024/02/04 08:25:51;;;;;;;9.35;8.65;;;;;;;;;;6120840;23;20010;-96
2024/02/04 08:31:21;;;;;;;10.23;9.57;;;;;;;;;;6170274;23;20087;-94
2024/02/04 08:33:54;;;;;;;12.60;11.82;;;;;;;;;;6172963;23;20012;-96
2024/02/04 08:36:48;;;;;;;11.68;10.98;;;;;;;;;;6203531;23;20009;-89
2024/02/04 08:39:23;;;;;;;11.45;10.75;;;;;;;;;;6178611;23;20091;-91
2024/02/04 08:44:35;;;;;;;12.75;11.98;;;;;;;;;;6151586;23;20002;-89
2024/02/04 08:47:01;;;;;;;10.05;9.45;;;;;;;;;;6144447;23;20004;-91
2024/02/04 08:50:07;;;;;;;9.73;9.13;;;;;;;;;;6171834;23;20031;-90
2024/02/04 08:52:36;;;;;;;10.65;9.95;;;;;;;;;;6158625;23;20092;-90
2024/02/04 08:55:18;;;;;;;10.60;9.90;;;;;;;;;;6142571;23;20014;-92
2024/02/04 08:58:27;;;;;;;9.15;8.55;;;;;;;;;;6146377;23;20025;-96
2024/02/04 09:04:05;;;;;;;8.03;7.43;;;;;;;;;;6140719;23;20029;-90
2024/02/04 09:06:37;;;;;;;9.93;9.32;;;;;;;;;;6142034;23;20014;-90
2024/02/04 09:09:16;;;;;;;9.95;9.35;;;;;;;;;;6139787;23;20069;-88
2024/02/04 09:11:45;;;;;;;9.48;8.77;;;;;;;;;;6142691;23;20002;-91
2024/02/04 09:17:25;;;;;;;9.32;8.73;;;;;;;;;;6120891;23;20029;-89
2024/02/04 09:19:54;;;;;;;12.10;11.40;;;;;;;;;;6109278;23;20038;-92
2024/02/04 09:22:20;;;;;;;10.23;9.52;;;;;;;;;;6105224;23;20439;-90
2024/02/04 09:24:52;;;;;;;12.57;11.77;;;;;;;;;;6109468;23;20032;-92
2024/02/04 09:27:22;;;;;;;11.60;10.90;;;;;;;;;;6107361;23;20007;-95
2024/02/04 09:29:51;;;;;;;27.73;26.17;;;;;;;;;;6115674;23;20012;-91
2024/02/04 09:32:34;;;;;;;22.05;20.75;;;;;;;;;;6141291;23;20021;-91
2024/02/04 09:35:00;;;;;;;13.23;12.43;;;;;;;;;;6110072;23;20014;-89
2024/02/04 09:37:26;;;;;;;11.10;10.40;;;;;;;;;;6111719;23;20007;-91
2024/02/04 09:40:01;;;;;;;9.55;8.95;;;;;;;;;;6113077;23;19998;-94
2024/02/04 09:42:31;;;;;;;8.65;8.02;;;;;;;;;;6120640;23;20395;-93
2024/02/04 09:48:01;;;;;;;;;;;;;;;;;;5480383;23;15258141;-92
2024/02/04 09:50:28;;;;;;;4.10;3.80;;;;;;;;;;6139521;23;19901;-94
2024/02/04 09:53:18;;;;;;;5.50;5.20;;;;;;;;;;6109643;23;20006;-95
2024/02/04 09:56:06;;;;;;;2.95;2.75;;;;;;;;;;6134963;23;20134;-96
2024/02/04 09:58:32;;;;;;;3.20;3.00;;;;;;;;;;6135487;23;20013;-90
2024/02/04 10:01:02;;;;;;;1.85;1.67;;;;;;;;;;6137304;23;20149;-90
2024/02/04 10:03:31;;;;;;;1.90;1.75;;;;;;;;;;6140826;23;20006;-93
2024/02/04 10:05:58;;;;;;;2.08;1.90;;;;;;;;;;6141201;23;20026;-91
2024/02/04 10:08:37;;;;;;;3.00;2.80;;;;;;;;;;6136039;23;20367;-96
2024/02/04 10:11:09;;;;;;;3.45;3.25;;;;;;;;;;6143718;23;20055;-90
2024/02/04 10:14:00;;;;;;;3.80;3.58;;;;;;;;;;6133847;23;20005;-95
2024/02/04 10:16:30;;;;;;;3.53;3.25;;;;;;;;;;6138201;23;20010;-89
2024/02/04 10:18:58;;;;;;;6.35;5.95;;;;;;;;;;6139471;23;20006;-88
2024/02/04 10:21:25;;;;;;;7.70;7.20;;;;;;;;;;6133687;23;20006;-89
2024/02/04 10:23:56;;;;;;;8.20;7.70;;;;;;;;;;6123621;23;20025;-93
2024/02/04 10:26:30;;;;;;;7.53;7.05;;;;;;;;;;6135795;23;20017;-88
2024/02/04 10:29:02;;;;;;;13.13;12.33;;;;;;;;;;6135089;23;20428;-92
2024/02/04 10:31:31;;;;;;;15.93;15.02;;;;;;;;;;6134771;23;20010;-92
2024/02/04 10:34:01;;;;;;;14.18;13.30;;;;;;;;;;6138371;23;20024;-91
2024/02/04 10:36:27;;;;;;;14.98;14.18;;;;;;;;;;6137988;23;20013;-90
2024/02/04 10:38:56;;;;;;;14.32;13.35;;;;;;;;;;6136823;23;20010;-91
2024/02/04 10:41:42;;;;;;;15.48;14.65;;;;;;;;;;6138426;23;20002;-91
2024/02/04 10:44:20;;;;;;;15.90;15.00;;;;;;;;;;6142857;23;20002;-91
2024/02/04 10:49:34;;;;;;;13.85;13.05;;;;;;;;;;6131794;23;20227;-90
2024/02/04 10:52:07;;;;;;;12.70;11.88;;;;;;;;;;6139436;23;20005;-90
2024/02/04 10:54:36;;;;;;;10.57;9.98;;;;;;;;;;6150038;23;19990;-93
2024/02/04 10:57:06;;;;;;;10.25;9.65;;;;;;;;;;6151727;23;19990;-89
2024/02/04 10:59:36;;;;;;;9.57;8.98;;;;;;;;;;6151200;23;19991;-92
2024/02/04 11:05:17;;;;;;;11.10;10.50;;;;;;;;;;6145775;23;20014;-91
2024/02/04 11:07:54;;;;;;;11.77;11.05;;;;;;;;;;6138188;23;20464;-90
2024/02/04 11:10:30;;;;;;;10.00;9.38;;;;;;;;;;6143394;23;20026;-89
2024/02/04 11:13:13;;;;;;;9.93;9.32;;;;;;;;;;6144917;23;20032;-89
2024/02/04 11:15:44;;;;;;;8.65;8.05;;;;;;;;;;6143740;23;20042;-89
2024/02/04 11:18:33;;;;;;;8.02;7.53;;;;;;;;;;6141561;23;20017;-95
2024/02/04 11:21:05;;;;;;;10.63;10.02;;;;;;;;;;6140818;23;20002;-92
2024/02/04 11:23:50;;;;;;;9.30;8.75;;;;;;;;;;6141014;23;20053;-89
2024/02/04 11:29:11;;;;;;;9.05;8.55;;;;;;;;;;6140877;23;20045;-93
2024/02/04 11:31:39;;;;;;;14.60;13.82;;;;;;;;;;6143075;23;20010;-89
2024/02/04 11:34:06;;;;;;;14.65;13.75;;;;;;;;;;6135874;23;20030;-88
2024/02/04 11:36:39;;;;;;;14.88;14.07;;;;;;;;;;6132717;23;20010;-87
2024/02/04 11:39:21;;;;;;;14.97;14.17;;;;;;;;;;6126092;23;20010;-88
2024/02/04 11:41:47;;;;;;;15.75;14.70;;;;;;;;;;6125966;23;20702;-87
2024/02/04 11:44:13;;;;;;;15.57;14.55;;;;;;;;;;6127167;23;20006;-87
2024/02/04 11:49:35;;;;;;;14.45;13.60;;;;;;;;;;6098435;23;20373;-93
2024/02/04 11:52:07;;;;;;;10.05;9.45;;;;;;;;;;6062697;23;20097;-91
2024/02/04 11:54:33;;;;;;;15.50;14.60;;;;;;;;;;6073854;23;20438;-89
2024/02/04 11:57:00;;;;;;;13.75;12.95;;;;;;;;;;6075443;23;20034;-88
2024/02/04 11:59:27;;;;;;;14.60;13.80;;;;;;;;;;6075075;23;20017;-88
2024/02/04 12:08:43;;;;;;;10.48;9.88;;;;;;;;;;5966467;24;20041;-89
2024/02/04 12:11:35;;;;;;;10.52;9.93;;;;;;;;;;5940970;24;20020;-90
2024/02/04 12:14:19;;;;;;;9.10;8.60;;;;;;;;;;5883918;24;20028;-91
2024/02/04 12:19:38;;;;;;;10.18;9.57;;;;;;;;;;6108500;23;20054;-89
2024/02/04 12:22:22;;;;;;;9.48;8.98;;;;;;;;;;6083044;23;20007;-95
2024/02/04 12:25:01;;;;;;;8.30;7.80;;;;;;;;;;6089979;23;20014;-96
2024/02/04 12:31:03;;;;;;;11.48;10.77;;;;;;;;;;5976219;24;20047;-96
2024/02/04 12:36:11;;;;;;;8.13;7.63;;;;;;;;;;6133781;23;20045;-95
2024/02/04 12:44:39;;;;;;;8.43;7.93;;;;;;;;;;6183127;23;20021;-92
2024/02/04 12:47:12;;;;;;;7.90;7.40;;;;;;;;;;6167584;23;20034;-95
2024/02/04 12:49:41;;;;;;;8.18;7.68;;;;;;;;;;6118990;23;20009;-96
2024/02/04 12:55:31;;;;;;;7.00;6.60;;;;;;;;;;6116408;23;20025;-95
2024/02/04 13:01:35;;;;;;;7.97;7.47;;;;;;;;;;6023665;23;20018;-96
2024/02/04 13:04:01;;;;;;;6.97;6.57;;;;;;;;;;6001249;23;20012;-90
2024/02/04 13:09:44;;;;;;;6.75;6.35;;;;;;;;;;6029081;23;20067;-96
2024/02/04 13:15:20;;;;;;;6.43;6.03;;;;;;;;;;6141795;23;20084;-96
2024/02/04 13:17:52;;;;;;;5.50;5.20;;;;;;;;;;6114302;23;20006;-96
2024/02/04 13:23:23;;;;;;;5.72;5.32;;;;;;;;;;6134133;23;20053;-91
2024/02/04 13:26:22;;;;;;;5.22;4.80;;;;;;;;;;6108099;23;20014;-91
2024/02/04 13:28:56;;;;;;;3.80;3.50;;;;;;;;;;6130913;23;20080;-94
2024/02/04 13:31:32;;;;;;;5.68;3.75;;;;;;;;;;6113426;23;20006;-90
2024/02/04 13:34:13;;;;;;;5.00;4.60;;;;;;;;;;6113542;23;20094;-96
2024/02/04 13:36:51;;;;;;;5.50;5.10;;;;;;;;;;6108426;23;20006;-90
2024/02/04 13:39:45;;;;;;;4.75;4.45;;;;;;;;;;6112144;23;20384;-96
2024/02/04 13:45:38;;;;;;;3.25;3.05;;;;;;;;;;6192355;23;20083;-95
2024/02/04 13:48:07;;;;;;;4.80;4.40;;;;;;;;;;6165401;23;20005;-89
2024/02/04 13:50:37;;;;;;;3.33;3.05;;;;;;;;;;6165124;23;20008;-91
2024/02/04 13:53:11;;;;;;;4.00;3.70;;;;;;;;;;6167165;23;20008;-91
2024/02/04 13:55:40;;;;;;;5.90;4.75;;;;;;;;;;6165826;23;20036;-93
2024/02/04 13:58:26;;;;;;;3.35;3.15;;;;;;;;;;6168962;23;20009;-95
2024/02/04 14:04:13;;;;;;;3.03;2.83;;;;;;;;;;6170244;23;20446;-91
2024/02/04 14:06:40;;;;;;;3.22;2.92;;;;;;;;;;6157938;23;20013;-91
2024/02/04 14:09:06;;;;;;;3.75;3.45;;;;;;;;;;6161245;23;20439;-90
2024/02/04 14:11:36;;;;;;;3.15;2.85;;;;;;;;;;6161196;23;20039;-91
2024/02/04 14:14:04;;;;;;;3.22;2.80;;;;;;;;;;6161513;23;20027;-91
2024/02/04 14:16:33;;;;;;;3.50;3.15;;;;;;;;;;6161125;23;20036;-89
2024/02/04 14:19:03;;;;;;;3.38;3.15;;;;;;;;;;6162147;23;20036;-90
2024/02/04 14:21:32;;;;;;;3.17;2.88;;;;;;;;;;6162831;23;20016;-90
2024/02/04 14:24:01;;;;;;;2.65;2.45;;;;;;;;;;6161194;23;20068;-91
2024/02/04 14:26:27;;;;;;;2.78;2.58;;;;;;;;;;6161184;23;20072;-90
2024/02/04 14:34:22;;;;;;;2.90;2.70;;;;;;;;;;6140688;23;20026;-90
2024/02/04 14:37:10;;;;;;;2.08;1.88;;;;;;;;;;6102599;23;20010;-91
2024/02/04 14:39:40;;;;;;;3.65;3.35;;;;;;;;;;6103227;23;20002;-91
2024/02/04 14:42:12;;;;;;;2.65;2.42;;;;;;;;;;6112170;23;20361;-94
2024/02/04 14:44:38;;;;;;;2.85;2.65;;;;;;;;;;6102513;23;20006;-91
2024/02/04 14:47:04;;;;;;;3.00;2.78;;;;;;;;;;6102795;23;20104;-89
2024/02/04 14:49:49;;;;;;;3.13;2.92;;;;;;;;;;6103751;23;20522;-95
2024/02/04 14:52:17;;;;;;;3.35;3.05;;;;;;;;;;6105181;23;20010;-88
2024/02/04 14:54:50;;;;;;;2.75;2.45;;;;;;;;;;6105311;23;20013;-91
2024/02/04 14:57:16;;;;;;;3.28;2.97;;;;;;;;;;6105481;23;20006;-89
2024/02/04 14:59:43;;;;;;;3.33;3.03;;;;;;;;;;6106531;23;20006;-91
2024/02/04 15:02:09;;;;;;;3.17;2.97;;;;;;;;;;6103732;23;20084;-95
2024/02/04 15:04:35;;;;;;;4.82;2.78;;;;;;;;;;6102217;23;20010;-90
2024/02/04 15:07:03;;;;;;;3.58;2.80;;;;;;;;;;6128966;23;20006;-90
2024/02/04 15:09:31;;;;;;;3.50;2.30;;;;;;;;;;6102726;23;20076;-92
2024/02/04 15:11:58;;;;;;;2.42;2.22;;;;;;;;;;6105223;23;20010;-89
2024/02/04 15:14:24;;;;;;;3.88;3.58;;;;;;;;;;6107160;23;20013;-90
2024/02/04 15:19:32;;;;;;;3.65;3.30;;;;;;;;;;6134021;23;20006;-91
2024/02/04 15:22:14;;;;;;;2.65;2.45;;;;;;;;;;6106952;23;20013;-94
2024/02/04 15:25:07;;;;;;;2.10;1.77;;;;;;;;;;6102104;23;20075;-90
2024/02/04 15:27:46;;;;;;;3.17;2.63;;;;;;;;;;6102158;23;20029;-89
2024/02/04 15:30:23;;;;;;;3.25;2.95;;;;;;;;;;6102242;23;20006;-91
2024/02/04 15:32:56;;;;;;;3.15;2.95;;;;;;;;;;6101017;23;20084;-95
2024/02/04 15:35:22;;;;;;;3.80;2.25;;;;;;;;;;6102900;23;20010;-92
2024/02/04 15:37:48;;;;;;;4.20;2.70;;;;;;;;;;6102118;23;20130;-91
2024/02/04 15:40:14;;;;;;;3.60;2.63;;;;;;;;;;6101898;23;20442;-90
2024/02/04 15:42:42;;;;;;;2.22;2.00;;;;;;;;;;6101435;23;20093;-91
2024/02/04 15:45:13;;;;;;;3.63;3.33;;;;;;;;;;6101681;23;20021;-89
2024/02/04 15:47:44;;;;;;;2.45;2.25;;;;;;;;;;6123405;23;20024;-89
2024/02/04 15:50:19;;;;;;;2.85;2.65;;;;;;;;;;6162134;23;20001;-91
2024/02/04 15:52:50;;;;;;;4.00;2.80;;;;;;;;;;6188179;23;20008;-89
2024/02/04 15:55:19;;;;;;;3.20;2.97;;;;;;;;;;6162478;23;20001;-89
2024/02/04 15:57:49;;;;;;;3.67;2.70;;;;;;;;;;6163931;23;20096;-88
2024/02/04 16:00:26;;;;;;;3.20;2.90;;;;;;;;;;6189555;23;20005;-90
2024/02/04 16:03:16;;;;;;;6.40;2.58;;;;;;;;;;6163593;23;20433;-89
2024/02/04 16:05:42;;;;;;;2.78;2.58;;;;;;;;;;6162848;23;20020;-90
2024/02/04 16:08:13;;;;;;;4.28;2.95;;;;;;;;;;6163472;23;20012;-90
2024/02/04 16:11:16;;;;;;;3.25;2.72;;;;;;;;;;6162580;23;20012;-91
2024/02/04 16:13:46;;;;;;;2.77;2.47;;;;;;;;;;6173920;23;20020;-93
2024/02/04 16:16:14;;;;;;;3.42;3.08;;;;;;;;;;6189157;23;20021;-89
2024/02/04 16:18:43;;;;;;;3.15;2.88;;;;;;;;;;6187932;23;20063;-90
2024/02/04 16:21:10;;;;;;;3.88;3.58;;;;;;;;;;6173557;23;20009;-89
2024/02/04 16:23:39;;;;;;;3.53;3.20;;;;;;;;;;6168139;23;20005;-95
2024/02/04 16:26:14;;;;;;;3.40;2.92;;;;;;;;;;6164558;23;20009;-92
2024/02/04 16:28:55;;;;;;;3.30;2.42;;;;;;;;;;6187455;23;20001;-91
2024/02/04 16:31:22;;;;;;;3.30;3.00;;;;;;;;;;6174258;23;19996;-89
2024/02/04 16:34:01;;;;;;;2.88;2.40;;;;;;;;;;6173501;23;20016;-90
2024/02/04 16:36:42;;;;;;;3.15;2.53;;;;;;;;;;6172110;23;20002;-88
2024/02/04 16:39:19;;;;;;;3.47;2.63;;;;;;;;;;6172946;23;20044;-96
2024/02/04 16:41:49;;;;;;;2.60;2.40;;;;;;;;;;6173413;23;20008;-91
2024/02/04 16:44:31;;;;;;;3.33;3.00;;;;;;;;;;6167872;23;20009;-90
2024/02/04 16:47:10;;;;;;;2.97;2.15;;;;;;;;;;6165897;23;20015;-96
2024/02/04 16:49:37;;;;;;;2.80;2.60;;;;;;;;;;6162051;23;20021;-89
2024/02/04 16:52:26;;;;;;;2.28;1.80;;;;;;;;;;6136118;23;20005;-93
2024/02/04 16:54:53;;;;;;;2.63;2.42;;;;;;;;;;6165077;23;20032;-90
2024/02/04 16:57:28;;;;;;;2.63;2.42;;;;;;;;;;6161858;23;20105;-96
2024/02/04 17:00:08;;;;;;;3.28;2.97;;;;;;;;;;6138461;23;20005;-96
2024/02/04 17:02:46;;;;;;;2.35;2.15;;;;;;;;;;6139036;23;20088;-96
2024/02/04 17:05:44;;;;;;;3.65;3.10;;;;;;;;;;6138744;23;20018;-95
2024/02/04 17:08:35;;;;;;;2.75;2.55;;;;;;;;;;6021782;23;20007;-94
2024/02/04 17:11:10;;;;;;;3.90;2.60;;;;;;;;;;6045210;23;20014;-92
2024/02/04 17:13:39;;;;;;;3.25;2.03;;;;;;;;;;6122009;23;20029;-96
2024/02/04 17:16:35;;;;;;;2.40;2.20;;;;;;;;;;6139629;23;20008;-96
2024/02/04 17:19:18;;;;;;;3.08;2.80;;;;;;;;;;6137281;23;20087;-95
2024/02/04 17:21:52;;;;;;;3.05;2.78;;;;;;;;;;6156647;23;20001;-94
2024/02/04 17:24:20;;;;;;;3.25;2.97;;;;;;;;;;6161495;23;20100;-93
2024/02/04 17:26:52;;;;;;;2.88;2.67;;;;;;;;;;6162822;23;20013;-95
2024/02/04 17:29:18;;;;;;;2.92;2.65;;;;;;;;;;6164193;23;20012;-89
2024/02/04 17:32:08;;;;;;;3.25;2.80;;;;;;;;;;6163827;23;20095;-96
2024/02/04 17:34:41;;;;;;;3.65;3.35;;;;;;;;;;6192066;23;20009;-93
2024/02/04 17:37:07;;;;;;;2.72;2.53;;;;;;;;;;6169281;23;20009;-89
2024/02/04 17:39:46;;;;;;;4.63;1.98;;;;;;;;;;6167790;23;20005;-93
2024/02/04 17:42:22;;;;;;;2.55;2.35;;;;;;;;;;6168831;23;20009;-96
2024/02/04 17:44:49;;;;;;;3.13;2.83;;;;;;;;;;6166000;23;20084;-90
2024/02/04 17:47:15;;;;;;;2.95;2.65;;;;;;;;;;6160612;23;20446;-91
2024/02/04 17:49:43;;;;;;;3.53;3.22;;;;;;;;;;6165413;23;20060;-88
2024/02/04 17:52:40;;;;;;;2.65;2.45;;;;;;;;;;6168778;23;20446;-93
2024/02/04 17:55:07;;;;;;;2.88;2.20;;;;;;;;;;6090770;23;20016;-91
2024/02/04 17:57:33;;;;;;;4.15;2.65;;;;;;;;;;6171461;23;19989;-91
2024/02/04 18:00:00;;;;;;;3.28;2.97;;;;;;;;;;6158411;23;20022;-87
2024/02/04 18:05:42;;;;;;;2.47;2.28;;;;;;;;;;6080810;23;19917;-90
2024/02/04 18:08:28;;;;;;;2.67;2.47;;;;;;;;;;6047923;23;20012;-96
2024/02/04 18:12:08;;;;;;;;;;;;;;;;;;;;;
2024/02/04 18:14:22;;;;;;;3.10;2.80;;;;;;;;;;5937288;24;20013;-88
2024/02/04 18:16:58;;;;;;;3.35;3.05;;;;;;;;;;5940248;23;20045;-96
2024/02/04 18:19:36;;;;;;;3.25;2.95;;;;;;;;;;6165358;23;20009;-96
2024/02/04 18:22:20;;;;;;;2.92;2.72;;;;;;;;;;6190463;23;20025;-94
2024/02/04 18:24:51;;;;;;;2.47;2.28;;;;;;;;;;6164400;23;20001;-90
2024/02/04 18:27:51;;;;;;;3.05;2.75;;;;;;;;;;6188389;23;20013;-91
2024/02/04 18:30:19;;;;;;;3.03;2.72;;;;;;;;;;6162591;23;20005;-91
2024/02/04 18:35:57;;;;;;;3.92;2.53;;;;;;;;;;6131610;23;20012;-94
2024/02/04 18:38:37;;;;;;;2.15;1.92;;;;;;;;;;6111934;23;19994;-96
2024/02/04 18:41:11;;;;;;;3.30;3.00;;;;;;;;;;6110636;23;20423;-95
2024/02/04 18:43:57;;;;;;;3.35;2.42;;;;;;;;;;6116818;23;20010;-96
2024/02/04 18:46:26;;;;;;;3.38;3.08;;;;;;;;;;6112816;23;20020;-96
2024/02/04 18:49:05;;;;;;;;;;;;;;;;;;;;;
2024/02/04 18:51:35;;;;;;;3.80;3.25;;;;;;;;;;6136233;23;20033;-91
2024/02/04 18:54:07;;;;;;;3.97;3.67;;;;;;;;;;6109450;23;20006;-91
2024/02/04 18:59:46;;;;;;;3.17;2.97;;;;;;;;;;6115380;23;20022;-94
2024/02/04 19:02:13;;;;;;;3.50;3.25;;;;;;;;;;6107871;23;20066;-90
2024/02/04 19:04:40;;;;;;;3.72;3.50;;;;;;;;;;6108839;23;20009;-90
2024/02/04 19:07:27;;;;;;;4.95;3.47;;;;;;;;;;6106796;23;20018;-92
2024/02/04 19:10:29;;;;;;;3.65;3.30;;;;;;;;;;6106463;23;20073;-96
2024/02/04 19:12:57;;;;;;;4.05;3.28;;;;;;;;;;6122150;23;20019;-93
2024/02/04 19:15:27;;;;;;;4.55;3.30;;;;;;;;;;6163145;23;20002;-96
2024/02/04 19:21:06;;;;;;;3.58;3.28;;;;;;;;;;6165143;23;20017;-90
2024/02/04 19:23:32;;;;;;;3.47;3.28;;;;;;;;;;6114220;23;20010;-89
2024/02/04 19:25:58;;;;;;;3.83;3.53;;;;;;;;;;6107454;23;20432;-88
2024/02/04 19:28:24;;;;;;;4.00;3.70;;;;;;;;;;6102433;23;20029;-90
2024/02/04 19:30:50;;;;;;;3.85;3.55;;;;;;;;;;6103597;23;20010;-90
2024/02/04 19:33:17;;;;;;;3.78;3.47;;;;;;;;;;6101277;23;20026;-90
2024/02/04 19:35:43;;;;;;;4.10;3.80;;;;;;;;;;6114189;23;20006;-89
2024/02/04 19:38:09;;;;;;;3.33;3.05;;;;;;;;;;6112530;23;20006;-88
2024/02/04 19:40:35;;;;;;;4.53;3.72;;;;;;;;;;6112969;23;20339;-89
2024/02/04 19:45:42;;;;;;;3.72;3.33;;;;;;;;;;6125128;23;20034;-86
2024/02/04 19:51:19;;;;;;;;;;;;;;;;;;;;;
2024/02/04 19:54:05;;;;;;;3.78;3.47;;;;;;;;;;6141815;23;20458;-95
2024/02/04 19:56:43;;;;;;;5.30;4.90;;;;;;;;;;6145522;23;20001;-92
2024/02/04 19:59:12;;;;;;;3.95;3.65;;;;;;;;;;6112588;23;20002;-91
2024/02/04 20:01:47;;;;;;;5.75;5.35;;;;;;;;;;6141452;23;20012;-90
2024/02/04 20:04:35;;;;;;;5.22;4.82;;;;;;;;;;6114094;23;20006;-91
2024/02/04 20:07:16;;;;;;;5.13;4.72;;;;;;;;;;6136549;23;20018;-90
2024/02/04 20:10:06;;;;;;;8.20;7.63;;;;;;;;;;6139452;23;20006;-89
2024/02/04 20:12:53;;;;;;;;;;;;;;;;;;;;;
2024/02/04 20:15:26;;;;;;;4.38;4.07;;;;;;;;;;6085207;23;20007;-89
2024/02/04 20:18:01;;;;;;;5.82;5.43;;;;;;;;;;6055002;23;20010;-88
2024/02/04 20:20:28;;;;;;;6.22;5.72;;;;;;;;;;6102844;23;20049;-96
2024/02/04 20:23:00;;;;;;;5.20;4.80;;;;;;;;;;6134579;23;20331;-94
2024/02/04 20:25:29;;;;;;;4.88;4.47;;;;;;;;;;6107331;23;20077;-88
2024/02/04 20:27:59;;;;;;;5.15;4.75;;;;;;;;;;6107686;23;20006;-90
2024/02/04 20:30:28;;;;;;;4.43;4.05;;;;;;;;;;6107507;23;20014;-91
2024/02/04 20:32:57;;;;;;;3.33;3.03;;;;;;;;;;6109374;23;20006;-91
2024/02/04 20:35:26;;;;;;;3.35;3.08;;;;;;;;;;6132415;23;20006;-87
2024/02/04 20:37:57;;;;;;;3.13;2.83;;;;;;;;;;6132948;23;20006;-94
2024/02/04 20:40:34;;;;;;;3.15;2.95;;;;;;;;;;6108713;23;20006;-89
2024/02/04 20:43:07;;;;;;;3.00;2.80;;;;;;;;;;6137265;23;20013;-91
2024/02/04 20:45:36;;;;;;;4.35;4.03;;;;;;;;;;6110079;23;20012;-90
2024/02/04 20:48:10;;;;;;;4.25;3.88;;;;;;;;;;6106482;23;20009;-90
2024/02/04 20:50:37;;;;;;;4.85;4.45;;;;;;;;;;6106119;23;20018;-87
2024/02/04 20:53:04;;;;;;;4.88;4.47;;;;;;;;;;6105738;23;20010;-88
2024/02/04 20:55:30;;;;;;;4.00;3.67;;;;;;;;;;6106688;23;20002;-87
2024/02/04 20:57:59;;;;;;;3.47;3.17;;;;;;;;;;6106824;23;20043;-91
2024/02/04 21:00:52;;;;;;;3.70;3.35;;;;;;;;;;6109117;23;20012;-94
2024/02/04 21:03:22;;;;;;;3.45;3.15;;;;;;;;;;6102168;23;20002;-93
2024/02/04 21:06:10;;;;;;;4.57;2.72;;;;;;;;;;6106697;23;20013;-91
2024/02/04 21:08:40;;;;;;;4.72;4.40;;;;;;;;;;6130256;23;20006;-94
2024/02/04 21:11:09;;;;;;;3.70;3.40;;;;;;;;;;6082242;23;20069;-86
2024/02/04 21:13:40;;;;;;;4.72;4.20;;;;;;;;;;6131756;23;20010;-90
2024/02/04 21:16:11;;;;;;;3.15;2.90;;;;;;;;;;6107840;23;20006;-88
2024/02/04 21:18:45;;;;;;;4.43;4.07;;;;;;;;;;6107971;23;20086;-94
2024/02/04 21:21:11;;;;;;;5.18;4.25;;;;;;;;;;6108843;23;20029;-86
2024/02/04 21:23:46;;;;;;;4.10;3.67;;;;;;;;;;6111869;23;20006;-87
2024/02/04 21:26:12;;;;;;;4.25;3.53;;;;;;;;;;6141286;23;20001;-90
2024/02/04 21:28:39;;;;;;;4.35;4.05;;;;;;;;;;6153398;23;20002;-88
2024/02/04 21:31:09;;;;;;;4.90;4.50;;;;;;;;;;6120385;23;20025;-89